<?xml version="1.0" encoding="UTF-8" standalone="no" ?>
<gpx xmlns="http://www.topografix.com/GPX/1/1" xmlns:xsi="http://www.w3.org/2001/XMLSchema-instance" xsi:schemaLocation="http://www.topografix.com/GPX/1/1 http://www.topografix.com/GPX/1/1/gpx.xsd" version="1.1" creator="VisuGPX - https://www.visugpx.com">
  <metadata>
    <name>Clermont-Ferrand - Massat - Pau par François</name>
    <desc><![CDATA[Trajet effectué par François sur la "Diagonale du vide" en aout 2020]]></desc>
  </metadata>
  <trk>
    <name><![CDATA[route104]]></name>
    <trkseg>
      <trkpt lat="44.96113" lon="3.54712">
        <ele>1028.7</ele>
        <time>2020-08-17T04:19:54Z</time>
      </trkpt>
      <trkpt lat="44.96034" lon="3.54627">
        <ele>1024</ele>
        <time>2020-08-17T04:20:46Z</time>
      </trkpt>
      <trkpt lat="44.95966" lon="3.54713">
        <ele>1029.5</ele>
        <time>2020-08-17T04:31:24Z</time>
      </trkpt>
      <trkpt lat="44.9595" lon="3.5485">
        <ele>1029.2</ele>
        <time>2020-08-17T04:31:54Z</time>
      </trkpt>
      <trkpt lat="44.95874" lon="3.54977">
        <ele>1027.5</ele>
        <time>2020-08-17T04:32:09Z</time>
      </trkpt>
      <trkpt lat="44.95806" lon="3.5509">
        <ele>1025</ele>
        <time>2020-08-17T04:32:24Z</time>
      </trkpt>
      <trkpt lat="44.95722" lon="3.55155">
        <ele>1024</ele>
        <time>2020-08-17T04:32:49Z</time>
      </trkpt>
      <trkpt lat="44.95632" lon="3.55191">
        <ele>1021.2</ele>
        <time>2020-08-17T04:33:30Z</time>
      </trkpt>
      <trkpt lat="44.95557" lon="3.55279">
        <ele>1019.3</ele>
        <time>2020-08-17T04:34:28Z</time>
      </trkpt>
      <trkpt lat="44.95486" lon="3.5537">
        <ele>1020</ele>
        <time>2020-08-17T04:35:36Z</time>
      </trkpt>
      <trkpt lat="44.95391" lon="3.55389">
        <ele>1021.5</ele>
        <time>2020-08-17T04:36:45Z</time>
      </trkpt>
      <trkpt lat="44.95315" lon="3.55462">
        <ele>1025</ele>
        <time>2020-08-17T04:38:02Z</time>
      </trkpt>
      <trkpt lat="44.9522" lon="3.55429">
        <ele>1027.6</ele>
        <time>2020-08-17T04:39:11Z</time>
      </trkpt>
      <trkpt lat="44.95153" lon="3.55327">
        <ele>1031.6</ele>
        <time>2020-08-17T04:40:29Z</time>
      </trkpt>
      <trkpt lat="44.95063" lon="3.55298">
        <ele>1036.2</ele>
        <time>2020-08-17T04:41:38Z</time>
      </trkpt>
      <trkpt lat="44.94967" lon="3.55308">
        <ele>1040.2</ele>
        <time>2020-08-17T04:42:40Z</time>
      </trkpt>
      <trkpt lat="44.94882" lon="3.55363">
        <ele>1044.7</ele>
        <time>2020-08-17T04:43:48Z</time>
      </trkpt>
      <trkpt lat="44.9483" lon="3.55478">
        <ele>1049.2</ele>
        <time>2020-08-17T04:44:54Z</time>
      </trkpt>
      <trkpt lat="44.94813" lon="3.55623">
        <ele>1052.6</ele>
        <time>2020-08-17T04:45:45Z</time>
      </trkpt>
      <trkpt lat="44.94782" lon="3.55746">
        <ele>1055.6</ele>
        <time>2020-08-17T04:46:26Z</time>
      </trkpt>
      <trkpt lat="44.94713" lon="3.55842">
        <ele>1060.8</ele>
        <time>2020-08-17T04:47:29Z</time>
      </trkpt>
      <trkpt lat="44.94676" lon="3.55967">
        <ele>1066.3</ele>
        <time>2020-08-17T04:48:39Z</time>
      </trkpt>
      <trkpt lat="44.94639" lon="3.5609">
        <ele>1071</ele>
        <time>2020-08-17T04:49:42Z</time>
      </trkpt>
      <trkpt lat="44.94567" lon="3.56179">
        <ele>1076.6</ele>
        <time>2020-08-17T04:50:57Z</time>
      </trkpt>
      <trkpt lat="44.945" lon="3.56276">
        <ele>1084.5</ele>
        <time>2020-08-17T04:52:09Z</time>
      </trkpt>
      <trkpt lat="44.94441" lon="3.56375">
        <ele>1094.7</ele>
        <time>2020-08-17T04:53:17Z</time>
      </trkpt>
      <trkpt lat="44.94393" lon="3.56481">
        <ele>1103.3</ele>
        <time>2020-08-17T04:54:16Z</time>
      </trkpt>
      <trkpt lat="44.94326" lon="3.56564">
        <ele>1108.9</ele>
        <time>2020-08-17T04:55:04Z</time>
      </trkpt>
      <trkpt lat="44.94259" lon="3.56667">
        <ele>1113.7</ele>
        <time>2020-08-17T04:55:51Z</time>
      </trkpt>
      <trkpt lat="44.94182" lon="3.56743">
        <ele>1117.9</ele>
        <time>2020-08-17T04:56:21Z</time>
      </trkpt>
      <trkpt lat="44.94106" lon="3.56814">
        <ele>1133.9</ele>
        <time>2020-08-17T05:04:23Z</time>
      </trkpt>
      <trkpt lat="44.94028" lon="3.56888">
        <ele>1140.6</ele>
        <time>2020-08-17T05:05:21Z</time>
      </trkpt>
      <trkpt lat="44.93952" lon="3.56955">
        <ele>1143.7</ele>
        <time>2020-08-17T05:06:07Z</time>
      </trkpt>
      <trkpt lat="44.93862" lon="3.56981">
        <ele>1145.8</ele>
        <time>2020-08-17T05:06:52Z</time>
      </trkpt>
      <trkpt lat="44.93769" lon="3.56989">
        <ele>1147.3</ele>
        <time>2020-08-17T05:07:32Z</time>
      </trkpt>
      <trkpt lat="44.93674" lon="3.57003">
        <ele>1148.5</ele>
        <time>2020-08-17T05:08:07Z</time>
      </trkpt>
      <trkpt lat="44.93576" lon="3.57018">
        <ele>1150.7</ele>
        <time>2020-08-17T05:08:42Z</time>
      </trkpt>
      <trkpt lat="44.93477" lon="3.56964">
        <ele>1150.8</ele>
        <time>2020-08-17T05:08:57Z</time>
      </trkpt>
      <trkpt lat="44.93377" lon="3.56841">
        <ele>1150.3</ele>
        <time>2020-08-17T05:09:12Z</time>
      </trkpt>
      <trkpt lat="44.9326" lon="3.56895">
        <ele>1148.2</ele>
        <time>2020-08-17T05:09:27Z</time>
      </trkpt>
      <trkpt lat="44.93188" lon="3.57019">
        <ele>1146.2</ele>
        <time>2020-08-17T05:09:37Z</time>
      </trkpt>
      <trkpt lat="44.93114" lon="3.57144">
        <ele>1143.9</ele>
        <time>2020-08-17T05:09:47Z</time>
      </trkpt>
      <trkpt lat="44.93038" lon="3.57267">
        <ele>1140.4</ele>
        <time>2020-08-17T05:09:57Z</time>
      </trkpt>
      <trkpt lat="44.92961" lon="3.57379">
        <ele>1137.3</ele>
        <time>2020-08-17T05:10:07Z</time>
      </trkpt>
      <trkpt lat="44.92843" lon="3.57305">
        <ele>1134.3</ele>
        <time>2020-08-17T05:10:22Z</time>
      </trkpt>
      <trkpt lat="44.92789" lon="3.57185">
        <ele>1130.8</ele>
        <time>2020-08-17T05:10:32Z</time>
      </trkpt>
      <trkpt lat="44.92698" lon="3.57198">
        <ele>1125.9</ele>
        <time>2020-08-17T05:10:42Z</time>
      </trkpt>
      <trkpt lat="44.92663" lon="3.57332">
        <ele>1119.8</ele>
        <time>2020-08-17T05:10:57Z</time>
      </trkpt>
      <trkpt lat="44.92647" lon="3.5746">
        <ele>1113.9</ele>
        <time>2020-08-17T05:11:47Z</time>
      </trkpt>
      <trkpt lat="44.92659" lon="3.57592">
        <ele>1105.9</ele>
        <time>2020-08-17T05:12:47Z</time>
      </trkpt>
      <trkpt lat="44.92628" lon="3.57719">
        <ele>1104</ele>
        <time>2020-08-17T05:14:01Z</time>
      </trkpt>
      <trkpt lat="44.92577" lon="3.57833">
        <ele>1106.6</ele>
        <time>2020-08-17T05:15:10Z</time>
      </trkpt>
      <trkpt lat="44.92551" lon="3.57959">
        <ele>1111.6</ele>
        <time>2020-08-17T05:16:17Z</time>
      </trkpt>
      <trkpt lat="44.92474" lon="3.58021">
        <ele>1117.2</ele>
        <time>2020-08-17T05:17:42Z</time>
      </trkpt>
      <trkpt lat="44.92396" lon="3.57944">
        <ele>1120.8</ele>
        <time>2020-08-17T05:19:01Z</time>
      </trkpt>
      <trkpt lat="44.92376" lon="3.58069">
        <ele>1124.8</ele>
        <time>2020-08-17T05:20:09Z</time>
      </trkpt>
      <trkpt lat="44.92365" lon="3.582">
        <ele>1128.7</ele>
        <time>2020-08-17T05:21:19Z</time>
      </trkpt>
      <trkpt lat="44.92315" lon="3.58304">
        <ele>1131.5</ele>
        <time>2020-08-17T05:22:14Z</time>
      </trkpt>
      <trkpt lat="44.92206" lon="3.58355">
        <ele>1134.3</ele>
        <time>2020-08-17T05:22:34Z</time>
      </trkpt>
      <trkpt lat="44.92109" lon="3.58444">
        <ele>1134.3</ele>
        <time>2020-08-17T05:22:49Z</time>
      </trkpt>
      <trkpt lat="44.9203" lon="3.58583">
        <ele>1134.7</ele>
        <time>2020-08-17T05:23:04Z</time>
      </trkpt>
      <trkpt lat="44.91954" lon="3.58655">
        <ele>1134.2</ele>
        <time>2020-08-17T05:23:14Z</time>
      </trkpt>
      <trkpt lat="44.91861" lon="3.58606">
        <ele>1132.8</ele>
        <time>2020-08-17T05:23:24Z</time>
      </trkpt>
      <trkpt lat="44.9177" lon="3.58588">
        <ele>1132</ele>
        <time>2020-08-17T05:23:34Z</time>
      </trkpt>
      <trkpt lat="44.91714" lon="3.58692">
        <ele>1130.9</ele>
        <time>2020-08-17T05:23:54Z</time>
      </trkpt>
      <trkpt lat="44.91689" lon="3.58815">
        <ele>1127.3</ele>
        <time>2020-08-17T05:24:34Z</time>
      </trkpt>
      <trkpt lat="44.91637" lon="3.58928">
        <ele>1121</ele>
        <time>2020-08-17T05:24:49Z</time>
      </trkpt>
      <trkpt lat="44.91591" lon="3.59044">
        <ele>1120</ele>
        <time>2020-08-17T05:25:04Z</time>
      </trkpt>
      <trkpt lat="44.91607" lon="3.59182">
        <ele>1118.7</ele>
        <time>2020-08-17T05:25:24Z</time>
      </trkpt>
      <trkpt lat="44.91643" lon="3.59327">
        <ele>1117.9</ele>
        <time>2020-08-17T05:25:39Z</time>
      </trkpt>
      <trkpt lat="44.91699" lon="3.59447">
        <ele>1116.4</ele>
        <time>2020-08-17T05:25:54Z</time>
      </trkpt>
      <trkpt lat="44.91782" lon="3.59545">
        <ele>1115.6</ele>
        <time>2020-08-17T05:26:09Z</time>
      </trkpt>
      <trkpt lat="44.91873" lon="3.59656">
        <ele>1115.1</ele>
        <time>2020-08-17T05:26:29Z</time>
      </trkpt>
      <trkpt lat="44.91932" lon="3.59756">
        <ele>1111.8</ele>
        <time>2020-08-17T05:26:44Z</time>
      </trkpt>
      <trkpt lat="44.92021" lon="3.5987">
        <ele>1110.5</ele>
        <time>2020-08-17T05:26:59Z</time>
      </trkpt>
      <trkpt lat="44.92053" lon="3.59992">
        <ele>1109.3</ele>
        <time>2020-08-17T05:27:09Z</time>
      </trkpt>
      <trkpt lat="44.92045" lon="3.60138">
        <ele>1108.4</ele>
        <time>2020-08-17T05:27:19Z</time>
      </trkpt>
      <trkpt lat="44.92074" lon="3.60294">
        <ele>1107.5</ele>
        <time>2020-08-17T05:27:29Z</time>
      </trkpt>
      <trkpt lat="44.92121" lon="3.60425">
        <ele>1100</ele>
        <time>2020-08-17T05:27:39Z</time>
      </trkpt>
      <trkpt lat="44.92089" lon="3.6057">
        <ele>1095.1</ele>
        <time>2020-08-17T05:27:49Z</time>
      </trkpt>
      <trkpt lat="44.92046" lon="3.60694">
        <ele>1088.5</ele>
        <time>2020-08-17T05:27:59Z</time>
      </trkpt>
      <trkpt lat="44.9209" lon="3.60871">
        <ele>1068.2</ele>
        <time>2020-08-17T05:28:14Z</time>
      </trkpt>
      <trkpt lat="44.92136" lon="3.61014">
        <ele>1062.5</ele>
        <time>2020-08-17T05:28:24Z</time>
      </trkpt>
      <trkpt lat="44.92173" lon="3.61146">
        <ele>1057.2</ele>
        <time>2020-08-17T05:28:34Z</time>
      </trkpt>
      <trkpt lat="44.92253" lon="3.61214">
        <ele>1050.7</ele>
        <time>2020-08-17T05:28:44Z</time>
      </trkpt>
      <trkpt lat="44.92321" lon="3.61305">
        <ele>1044.3</ele>
        <time>2020-08-17T05:28:54Z</time>
      </trkpt>
      <trkpt lat="44.92381" lon="3.61445">
        <ele>1033.6</ele>
        <time>2020-08-17T05:29:09Z</time>
      </trkpt>
      <trkpt lat="44.92332" lon="3.61589">
        <ele>1023.8</ele>
        <time>2020-08-17T05:29:24Z</time>
      </trkpt>
      <trkpt lat="44.92239" lon="3.61568">
        <ele>1019.4</ele>
        <time>2020-08-17T05:29:34Z</time>
      </trkpt>
      <trkpt lat="44.92137" lon="3.61546">
        <ele>1011.8</ele>
        <time>2020-08-17T05:29:44Z</time>
      </trkpt>
      <trkpt lat="44.92047" lon="3.61547">
        <ele>1005.6</ele>
        <time>2020-08-17T05:29:54Z</time>
      </trkpt>
      <trkpt lat="44.91921" lon="3.61571">
        <ele>995.3</ele>
        <time>2020-08-17T05:30:09Z</time>
      </trkpt>
      <trkpt lat="44.91835" lon="3.61625">
        <ele>972.5</ele>
        <time>2020-08-17T05:30:24Z</time>
      </trkpt>
      <trkpt lat="44.91824" lon="3.61775">
        <ele>959.8</ele>
        <time>2020-08-17T05:30:39Z</time>
      </trkpt>
      <trkpt lat="44.91762" lon="3.61882">
        <ele>946.6</ele>
        <time>2020-08-17T05:30:49Z</time>
      </trkpt>
      <trkpt lat="44.91747" lon="3.6204">
        <ele>945</ele>
        <time>2020-08-17T05:30:59Z</time>
      </trkpt>
      <trkpt lat="44.91649" lon="3.62122">
        <ele>949</ele>
        <time>2020-08-17T05:31:14Z</time>
      </trkpt>
      <trkpt lat="44.91542" lon="3.62123">
        <ele>950.5</ele>
        <time>2020-08-17T05:32:15Z</time>
      </trkpt>
      <trkpt lat="44.91516" lon="3.62266">
        <ele>931</ele>
        <time>2020-08-17T05:32:35Z</time>
      </trkpt>
      <trkpt lat="44.91571" lon="3.62415">
        <ele>923.4</ele>
        <time>2020-08-17T05:32:50Z</time>
      </trkpt>
      <trkpt lat="44.91588" lon="3.62562">
        <ele>917.7</ele>
        <time>2020-08-17T05:33:09Z</time>
      </trkpt>
      <trkpt lat="44.91527" lon="3.62661">
        <ele>910.7</ele>
        <time>2020-08-17T05:34:14Z</time>
      </trkpt>
      <trkpt lat="44.91472" lon="3.6276">
        <ele>907.4</ele>
        <time>2020-08-17T05:35:13Z</time>
      </trkpt>
      <trkpt lat="44.9142" lon="3.62872">
        <ele>907.4</ele>
        <time>2020-08-17T05:36:21Z</time>
      </trkpt>
      <trkpt lat="44.91429" lon="3.63009">
        <ele>910.2</ele>
        <time>2020-08-17T05:37:17Z</time>
      </trkpt>
      <trkpt lat="44.91431" lon="3.63149">
        <ele>913</ele>
        <time>2020-08-17T05:38:18Z</time>
      </trkpt>
      <trkpt lat="44.91503" lon="3.63235">
        <ele>915.6</ele>
        <time>2020-08-17T05:39:19Z</time>
      </trkpt>
      <trkpt lat="44.91592" lon="3.63276">
        <ele>917.4</ele>
        <time>2020-08-17T05:40:04Z</time>
      </trkpt>
      <trkpt lat="44.91681" lon="3.63304">
        <ele>920</ele>
        <time>2020-08-17T05:40:52Z</time>
      </trkpt>
      <trkpt lat="44.91748" lon="3.634">
        <ele>922.7</ele>
        <time>2020-08-17T05:41:37Z</time>
      </trkpt>
      <trkpt lat="44.91785" lon="3.63523">
        <ele>925.1</ele>
        <time>2020-08-17T05:42:26Z</time>
      </trkpt>
      <trkpt lat="44.91821" lon="3.63655">
        <ele>927.4</ele>
        <time>2020-08-17T05:43:18Z</time>
      </trkpt>
      <trkpt lat="44.91869" lon="3.63776">
        <ele>929.7</ele>
        <time>2020-08-17T05:44:10Z</time>
      </trkpt>
      <trkpt lat="44.91955" lon="3.6383">
        <ele>931.9</ele>
        <time>2020-08-17T05:45:00Z</time>
      </trkpt>
      <trkpt lat="44.92047" lon="3.63792">
        <ele>933.6</ele>
        <time>2020-08-17T05:45:45Z</time>
      </trkpt>
      <trkpt lat="44.92003" lon="3.63913">
        <ele>937.1</ele>
        <time>2020-08-17T05:47:00Z</time>
      </trkpt>
      <trkpt lat="44.92002" lon="3.64051">
        <ele>940.9</ele>
        <time>2020-08-17T05:48:09Z</time>
      </trkpt>
      <trkpt lat="44.92043" lon="3.64173">
        <ele>944.7</ele>
        <time>2020-08-17T05:49:19Z</time>
      </trkpt>
      <trkpt lat="44.92096" lon="3.64281">
        <ele>949.4</ele>
        <time>2020-08-17T05:50:20Z</time>
      </trkpt>
      <trkpt lat="44.92165" lon="3.64367">
        <ele>956.3</ele>
        <time>2020-08-17T05:51:19Z</time>
      </trkpt>
      <trkpt lat="44.92232" lon="3.64467">
        <ele>962.8</ele>
        <time>2020-08-17T05:52:20Z</time>
      </trkpt>
      <trkpt lat="44.92261" lon="3.64595">
        <ele>970.7</ele>
        <time>2020-08-17T05:53:24Z</time>
      </trkpt>
      <trkpt lat="44.92241" lon="3.64729">
        <ele>981.1</ele>
        <time>2020-08-17T05:54:27Z</time>
      </trkpt>
      <trkpt lat="44.92223" lon="3.64862">
        <ele>990.7</ele>
        <time>2020-08-17T05:55:29Z</time>
      </trkpt>
      <trkpt lat="44.92228" lon="3.65003">
        <ele>996.4</ele>
        <time>2020-08-17T05:56:32Z</time>
      </trkpt>
      <trkpt lat="44.92202" lon="3.65124">
        <ele>1002.4</ele>
        <time>2020-08-17T06:00:10Z</time>
      </trkpt>
      <trkpt lat="44.92202" lon="3.65276">
        <ele>1012.5</ele>
        <time>2020-08-17T06:06:55Z</time>
      </trkpt>
      <trkpt lat="44.92187" lon="3.65427">
        <ele>1012.4</ele>
        <time>2020-08-17T06:07:10Z</time>
      </trkpt>
      <trkpt lat="44.92183" lon="3.65555">
        <ele>1010.9</ele>
        <time>2020-08-17T06:07:20Z</time>
      </trkpt>
      <trkpt lat="44.92274" lon="3.65684">
        <ele>1007.4</ele>
        <time>2020-08-17T06:07:35Z</time>
      </trkpt>
      <trkpt lat="44.92368" lon="3.65774">
        <ele>1007.7</ele>
        <time>2020-08-17T06:07:45Z</time>
      </trkpt>
      <trkpt lat="44.92369" lon="3.65934">
        <ele>1003.7</ele>
        <time>2020-08-17T06:07:55Z</time>
      </trkpt>
      <trkpt lat="44.92322" lon="3.66073">
        <ele>998.3</ele>
        <time>2020-08-17T06:08:05Z</time>
      </trkpt>
      <trkpt lat="44.92294" lon="3.66229">
        <ele>982</ele>
        <time>2020-08-17T06:11:15Z</time>
      </trkpt>
      <trkpt lat="44.92292" lon="3.66377">
        <ele>975.8</ele>
        <time>2020-08-17T06:11:30Z</time>
      </trkpt>
      <trkpt lat="44.92376" lon="3.66443">
        <ele>971.9</ele>
        <time>2020-08-17T06:11:40Z</time>
      </trkpt>
      <trkpt lat="44.92416" lon="3.66581">
        <ele>967.3</ele>
        <time>2020-08-17T06:11:50Z</time>
      </trkpt>
      <trkpt lat="44.92535" lon="3.66685">
        <ele>961.3</ele>
        <time>2020-08-17T06:12:05Z</time>
      </trkpt>
      <trkpt lat="44.92552" lon="3.66836">
        <ele>952.8</ele>
        <time>2020-08-17T06:12:15Z</time>
      </trkpt>
      <trkpt lat="44.92606" lon="3.66948">
        <ele>944.8</ele>
        <time>2020-08-17T06:12:25Z</time>
      </trkpt>
      <trkpt lat="44.92702" lon="3.66917">
        <ele>938</ele>
        <time>2020-08-17T06:12:35Z</time>
      </trkpt>
      <trkpt lat="44.92814" lon="3.66851">
        <ele>929</ele>
        <time>2020-08-17T06:12:45Z</time>
      </trkpt>
      <trkpt lat="44.92919" lon="3.66868">
        <ele>918.1</ele>
        <time>2020-08-17T06:12:55Z</time>
      </trkpt>
      <trkpt lat="44.93009" lon="3.66964">
        <ele>910.8</ele>
        <time>2020-08-17T06:13:05Z</time>
      </trkpt>
      <trkpt lat="44.93087" lon="3.67088">
        <ele>904.8</ele>
        <time>2020-08-17T06:13:15Z</time>
      </trkpt>
      <trkpt lat="44.93119" lon="3.67228">
        <ele>899.3</ele>
        <time>2020-08-17T06:13:25Z</time>
      </trkpt>
      <trkpt lat="44.93031" lon="3.67316">
        <ele>887.5</ele>
        <time>2020-08-17T06:13:35Z</time>
      </trkpt>
      <trkpt lat="44.92933" lon="3.6735">
        <ele>879.9</ele>
        <time>2020-08-17T06:13:45Z</time>
      </trkpt>
      <trkpt lat="44.92956" lon="3.67521">
        <ele>866.2</ele>
        <time>2020-08-17T06:14:00Z</time>
      </trkpt>
      <trkpt lat="44.93009" lon="3.67654">
        <ele>860.5</ele>
        <time>2020-08-17T06:14:10Z</time>
      </trkpt>
      <trkpt lat="44.93042" lon="3.67836">
        <ele>850.6</ele>
        <time>2020-08-17T06:14:25Z</time>
      </trkpt>
      <trkpt lat="44.92934" lon="3.6791">
        <ele>833.8</ele>
        <time>2020-08-17T06:14:40Z</time>
      </trkpt>
      <trkpt lat="44.9283" lon="3.67884">
        <ele>827.9</ele>
        <time>2020-08-17T06:14:50Z</time>
      </trkpt>
      <trkpt lat="44.92728" lon="3.67819">
        <ele>822</ele>
        <time>2020-08-17T06:15:00Z</time>
      </trkpt>
      <trkpt lat="44.92623" lon="3.67752">
        <ele>812.8</ele>
        <time>2020-08-17T06:15:10Z</time>
      </trkpt>
      <trkpt lat="44.92522" lon="3.67676">
        <ele>803</ele>
        <time>2020-08-17T06:15:20Z</time>
      </trkpt>
      <trkpt lat="44.92434" lon="3.67618">
        <ele>796.6</ele>
        <time>2020-08-17T06:15:30Z</time>
      </trkpt>
      <trkpt lat="44.92328" lon="3.67531">
        <ele>779.2</ele>
        <time>2020-08-17T06:15:45Z</time>
      </trkpt>
      <trkpt lat="44.92243" lon="3.67454">
        <ele>772.5</ele>
        <time>2020-08-17T06:15:55Z</time>
      </trkpt>
      <trkpt lat="44.9217" lon="3.67354">
        <ele>766.9</ele>
        <time>2020-08-17T06:16:05Z</time>
      </trkpt>
      <trkpt lat="44.92096" lon="3.67242">
        <ele>761.1</ele>
        <time>2020-08-17T06:16:15Z</time>
      </trkpt>
      <trkpt lat="44.92028" lon="3.67144">
        <ele>755.6</ele>
        <time>2020-08-17T06:16:25Z</time>
      </trkpt>
      <trkpt lat="44.91936" lon="3.67191">
        <ele>746.1</ele>
        <time>2020-08-17T06:17:21Z</time>
      </trkpt>
      <trkpt lat="44.9189" lon="3.67299">
        <ele>734.5</ele>
        <time>2020-08-17T06:17:57Z</time>
      </trkpt>
      <trkpt lat="44.91972" lon="3.67379">
        <ele>729.2</ele>
        <time>2020-08-17T06:18:55Z</time>
      </trkpt>
      <trkpt lat="44.92011" lon="3.67498">
        <ele>727.7</ele>
        <time>2020-08-17T06:22:01Z</time>
      </trkpt>
      <trkpt lat="44.91916" lon="3.67526">
        <ele>727.9</ele>
        <time>2020-08-17T06:23:29Z</time>
      </trkpt>
      <trkpt lat="44.91823" lon="3.67487">
        <ele>729.6</ele>
        <time>2020-08-17T06:24:45Z</time>
      </trkpt>
      <trkpt lat="44.9173" lon="3.67477">
        <ele>732.2</ele>
        <time>2020-08-17T06:25:53Z</time>
      </trkpt>
      <trkpt lat="44.91645" lon="3.67538">
        <ele>735.3</ele>
        <time>2020-08-17T06:27:00Z</time>
      </trkpt>
      <trkpt lat="44.91577" lon="3.67637">
        <ele>738.6</ele>
        <time>2020-08-17T06:28:12Z</time>
      </trkpt>
      <trkpt lat="44.91514" lon="3.67738">
        <ele>742</ele>
        <time>2020-08-17T06:29:18Z</time>
      </trkpt>
      <trkpt lat="44.91452" lon="3.67836">
        <ele>746</ele>
        <time>2020-08-17T06:30:23Z</time>
      </trkpt>
      <trkpt lat="44.91406" lon="3.67955">
        <ele>750.1</ele>
        <time>2020-08-17T06:31:29Z</time>
      </trkpt>
      <trkpt lat="44.91392" lon="3.68081">
        <ele>756.6</ele>
        <time>2020-08-17T06:32:38Z</time>
      </trkpt>
      <trkpt lat="44.91486" lon="3.68088">
        <ele>766.1</ele>
        <time>2020-08-17T06:33:46Z</time>
      </trkpt>
      <trkpt lat="44.91574" lon="3.68146">
        <ele>775.9</ele>
        <time>2020-08-17T06:34:52Z</time>
      </trkpt>
      <trkpt lat="44.91663" lon="3.68214">
        <ele>786.7</ele>
        <time>2020-08-17T06:36:04Z</time>
      </trkpt>
      <trkpt lat="44.91756" lon="3.68224">
        <ele>798.4</ele>
        <time>2020-08-17T06:37:15Z</time>
      </trkpt>
      <trkpt lat="44.91846" lon="3.68208">
        <ele>809.7</ele>
        <time>2020-08-17T06:38:14Z</time>
      </trkpt>
      <trkpt lat="44.91772" lon="3.68297">
        <ele>830.7</ele>
        <time>2020-08-17T06:39:55Z</time>
      </trkpt>
      <trkpt lat="44.91709" lon="3.68389">
        <ele>838</ele>
        <time>2020-08-17T06:41:00Z</time>
      </trkpt>
      <trkpt lat="44.91631" lon="3.68448">
        <ele>842.8</ele>
        <time>2020-08-17T06:42:04Z</time>
      </trkpt>
      <trkpt lat="44.91542" lon="3.6849">
        <ele>848.1</ele>
        <time>2020-08-17T06:43:14Z</time>
      </trkpt>
      <trkpt lat="44.91505" lon="3.68613">
        <ele>854.8</ele>
        <time>2020-08-17T06:44:26Z</time>
      </trkpt>
      <trkpt lat="44.91545" lon="3.68738">
        <ele>862.7</ele>
        <time>2020-08-17T06:45:37Z</time>
      </trkpt>
      <trkpt lat="44.91487" lon="3.68837">
        <ele>869.1</ele>
        <time>2020-08-17T06:46:52Z</time>
      </trkpt>
      <trkpt lat="44.91405" lon="3.68894">
        <ele>874</ele>
        <time>2020-08-17T06:47:55Z</time>
      </trkpt>
      <trkpt lat="44.91369" lon="3.69024">
        <ele>889</ele>
        <time>2020-08-17T06:49:08Z</time>
      </trkpt>
      <trkpt lat="44.91444" lon="3.68947">
        <ele>906.1</ele>
        <time>2020-08-17T06:51:20Z</time>
      </trkpt>
      <trkpt lat="44.91539" lon="3.68937">
        <ele>910</ele>
        <time>2020-08-17T06:52:24Z</time>
      </trkpt>
      <trkpt lat="44.91632" lon="3.689">
        <ele>914.5</ele>
        <time>2020-08-17T06:53:38Z</time>
      </trkpt>
      <trkpt lat="44.91709" lon="3.68818">
        <ele>918.1</ele>
        <time>2020-08-17T06:54:44Z</time>
      </trkpt>
      <trkpt lat="44.91667" lon="3.68943">
        <ele>925.1</ele>
        <time>2020-08-17T06:56:10Z</time>
      </trkpt>
      <trkpt lat="44.91612" lon="3.69059">
        <ele>930.1</ele>
        <time>2020-08-17T06:57:22Z</time>
      </trkpt>
      <trkpt lat="44.91543" lon="3.69152">
        <ele>935.2</ele>
        <time>2020-08-17T06:58:28Z</time>
      </trkpt>
      <trkpt lat="44.91528" lon="3.69284">
        <ele>944.8</ele>
        <time>2020-08-17T06:59:47Z</time>
      </trkpt>
      <trkpt lat="44.91552" lon="3.69416">
        <ele>958.4</ele>
        <time>2020-08-17T07:00:57Z</time>
      </trkpt>
      <trkpt lat="44.91529" lon="3.69548">
        <ele>967.8</ele>
        <time>2020-08-17T07:02:08Z</time>
      </trkpt>
      <trkpt lat="44.91496" lon="3.69673">
        <ele>974</ele>
        <time>2020-08-17T07:03:18Z</time>
      </trkpt>
      <trkpt lat="44.91508" lon="3.69804">
        <ele>979.4</ele>
        <time>2020-08-17T07:04:35Z</time>
      </trkpt>
      <trkpt lat="44.91477" lon="3.69932">
        <ele>984.2</ele>
        <time>2020-08-17T07:05:44Z</time>
      </trkpt>
      <trkpt lat="44.91546" lon="3.70021">
        <ele>992.1</ele>
        <time>2020-08-17T07:06:53Z</time>
      </trkpt>
      <trkpt lat="44.91593" lon="3.70137">
        <ele>1011.4</ele>
        <time>2020-08-17T07:08:08Z</time>
      </trkpt>
      <trkpt lat="44.91629" lon="3.70263">
        <ele>1026.8</ele>
        <time>2020-08-17T07:09:21Z</time>
      </trkpt>
      <trkpt lat="44.91698" lon="3.70367">
        <ele>1040.6</ele>
        <time>2020-08-17T07:14:39Z</time>
      </trkpt>
      <trkpt lat="44.91742" lon="3.70487">
        <ele>1043.8</ele>
        <time>2020-08-17T07:15:45Z</time>
      </trkpt>
      <trkpt lat="44.91755" lon="3.70626">
        <ele>1047.2</ele>
        <time>2020-08-17T07:16:59Z</time>
      </trkpt>
      <trkpt lat="44.91814" lon="3.7073">
        <ele>1050.7</ele>
        <time>2020-08-17T07:18:06Z</time>
      </trkpt>
      <trkpt lat="44.91905" lon="3.70749">
        <ele>1053.9</ele>
        <time>2020-08-17T07:19:15Z</time>
      </trkpt>
      <trkpt lat="44.91996" lon="3.70733">
        <ele>1057.9</ele>
        <time>2020-08-17T07:20:25Z</time>
      </trkpt>
      <trkpt lat="44.92077" lon="3.70661">
        <ele>1063.5</ele>
        <time>2020-08-17T07:21:38Z</time>
      </trkpt>
      <trkpt lat="44.92143" lon="3.70755">
        <ele>1074.7</ele>
        <time>2020-08-17T07:23:04Z</time>
      </trkpt>
      <trkpt lat="44.92114" lon="3.70874">
        <ele>1088.8</ele>
        <time>2020-08-17T07:24:07Z</time>
      </trkpt>
      <trkpt lat="44.92154" lon="3.70996">
        <ele>1098.5</ele>
        <time>2020-08-17T07:25:14Z</time>
      </trkpt>
      <trkpt lat="44.92247" lon="3.70999">
        <ele>1103.8</ele>
        <time>2020-08-17T07:26:20Z</time>
      </trkpt>
      <trkpt lat="44.92336" lon="3.70951">
        <ele>1109</ele>
        <time>2020-08-17T07:27:26Z</time>
      </trkpt>
      <trkpt lat="44.92432" lon="3.70936">
        <ele>1113.5</ele>
        <time>2020-08-17T07:28:35Z</time>
      </trkpt>
      <trkpt lat="44.92504" lon="3.71019">
        <ele>1123.4</ele>
        <time>2020-08-17T07:34:18Z</time>
      </trkpt>
      <trkpt lat="44.92463" lon="3.71142">
        <ele>1128.4</ele>
        <time>2020-08-17T07:35:03Z</time>
      </trkpt>
      <trkpt lat="44.92453" lon="3.71272">
        <ele>1131.4</ele>
        <time>2020-08-17T07:35:43Z</time>
      </trkpt>
      <trkpt lat="44.92443" lon="3.71405">
        <ele>1133.9</ele>
        <time>2020-08-17T07:36:23Z</time>
      </trkpt>
      <trkpt lat="44.9243" lon="3.71541">
        <ele>1136.6</ele>
        <time>2020-08-17T07:37:08Z</time>
      </trkpt>
      <trkpt lat="44.92407" lon="3.71671">
        <ele>1138.7</ele>
        <time>2020-08-17T07:37:43Z</time>
      </trkpt>
      <trkpt lat="44.92386" lon="3.718">
        <ele>1140.5</ele>
        <time>2020-08-17T07:38:13Z</time>
      </trkpt>
      <trkpt lat="44.92365" lon="3.71934">
        <ele>1142.3</ele>
        <time>2020-08-17T07:38:43Z</time>
      </trkpt>
      <trkpt lat="44.92274" lon="3.72008">
        <ele>1146.3</ele>
        <time>2020-08-17T07:39:08Z</time>
      </trkpt>
      <trkpt lat="44.92184" lon="3.71997">
        <ele>1147.7</ele>
        <time>2020-08-17T07:39:33Z</time>
      </trkpt>
      <trkpt lat="44.92113" lon="3.72097">
        <ele>1152.2</ele>
        <time>2020-08-17T07:40:08Z</time>
      </trkpt>
      <trkpt lat="44.92068" lon="3.72206">
        <ele>1154.2</ele>
        <time>2020-08-17T07:40:38Z</time>
      </trkpt>
      <trkpt lat="44.92033" lon="3.72328">
        <ele>1159.4</ele>
        <time>2020-08-17T07:41:03Z</time>
      </trkpt>
      <trkpt lat="44.91986" lon="3.7244">
        <ele>1160.9</ele>
        <time>2020-08-17T07:41:28Z</time>
      </trkpt>
      <trkpt lat="44.91939" lon="3.72557">
        <ele>1162.2</ele>
        <time>2020-08-17T07:41:58Z</time>
      </trkpt>
      <trkpt lat="44.91917" lon="3.72688">
        <ele>1164.5</ele>
        <time>2020-08-17T07:42:33Z</time>
      </trkpt>
      <trkpt lat="44.91903" lon="3.72821">
        <ele>1167</ele>
        <time>2020-08-17T07:43:08Z</time>
      </trkpt>
      <trkpt lat="44.91863" lon="3.72942">
        <ele>1168.9</ele>
        <time>2020-08-17T07:43:43Z</time>
      </trkpt>
      <trkpt lat="44.91837" lon="3.73066">
        <ele>1170.4</ele>
        <time>2020-08-17T07:44:13Z</time>
      </trkpt>
      <trkpt lat="44.9183" lon="3.73204">
        <ele>1172.9</ele>
        <time>2020-08-17T07:45:07Z</time>
      </trkpt>
      <trkpt lat="44.91817" lon="3.73337">
        <ele>1175.5</ele>
        <time>2020-08-17T07:46:05Z</time>
      </trkpt>
      <trkpt lat="44.91793" lon="3.73464">
        <ele>1177.5</ele>
        <time>2020-08-17T07:46:50Z</time>
      </trkpt>
      <trkpt lat="44.91763" lon="3.73591">
        <ele>1179.3</ele>
        <time>2020-08-17T07:47:35Z</time>
      </trkpt>
      <trkpt lat="44.91712" lon="3.73711">
        <ele>1180.9</ele>
        <time>2020-08-17T07:48:15Z</time>
      </trkpt>
      <trkpt lat="44.91669" lon="3.73829">
        <ele>1183.8</ele>
        <time>2020-08-17T07:48:40Z</time>
      </trkpt>
      <trkpt lat="44.9164" lon="3.73977">
        <ele>1185</ele>
        <time>2020-08-17T07:49:05Z</time>
      </trkpt>
      <trkpt lat="44.91622" lon="3.74104">
        <ele>1185.7</ele>
        <time>2020-08-17T07:49:25Z</time>
      </trkpt>
      <trkpt lat="44.9167" lon="3.74237">
        <ele>1186.3</ele>
        <time>2020-08-17T07:49:45Z</time>
      </trkpt>
      <trkpt lat="44.9159" lon="3.74296">
        <ele>1187.5</ele>
        <time>2020-08-17T07:50:05Z</time>
      </trkpt>
      <trkpt lat="44.91514" lon="3.74381">
        <ele>1189.9</ele>
        <time>2020-08-17T07:51:08Z</time>
      </trkpt>
      <trkpt lat="44.91449" lon="3.74486">
        <ele>1193.6</ele>
        <time>2020-08-17T07:52:01Z</time>
      </trkpt>
      <trkpt lat="44.9138" lon="3.74594">
        <ele>1196.2</ele>
        <time>2020-08-17T07:52:36Z</time>
      </trkpt>
      <trkpt lat="44.91388" lon="3.74726">
        <ele>1199.9</ele>
        <time>2020-08-17T07:53:26Z</time>
      </trkpt>
      <trkpt lat="44.91467" lon="3.74809">
        <ele>1206.4</ele>
        <time>2020-08-17T07:54:36Z</time>
      </trkpt>
      <trkpt lat="44.91549" lon="3.74884">
        <ele>1212.8</ele>
        <time>2020-08-17T07:55:40Z</time>
      </trkpt>
      <trkpt lat="44.91625" lon="3.74965">
        <ele>1217.2</ele>
        <time>2020-08-17T07:56:45Z</time>
      </trkpt>
      <trkpt lat="44.91687" lon="3.75071">
        <ele>1221.1</ele>
        <time>2020-08-17T07:57:54Z</time>
      </trkpt>
      <trkpt lat="44.91689" lon="3.75202">
        <ele>1225</ele>
        <time>2020-08-17T07:59:03Z</time>
      </trkpt>
      <trkpt lat="44.9168" lon="3.75337">
        <ele>1228.8</ele>
        <time>2020-08-17T08:00:15Z</time>
      </trkpt>
      <trkpt lat="44.91684" lon="3.75469">
        <ele>1232.3</ele>
        <time>2020-08-17T08:01:27Z</time>
      </trkpt>
      <trkpt lat="44.91687" lon="3.75605">
        <ele>1237.2</ele>
        <time>2020-08-17T08:02:39Z</time>
      </trkpt>
      <trkpt lat="44.91678" lon="3.75738">
        <ele>1243</ele>
        <time>2020-08-17T08:03:49Z</time>
      </trkpt>
      <trkpt lat="44.91683" lon="3.75873">
        <ele>1249</ele>
        <time>2020-08-17T08:05:00Z</time>
      </trkpt>
      <trkpt lat="44.91732" lon="3.75991">
        <ele>1258.8</ele>
        <time>2020-08-17T08:06:09Z</time>
      </trkpt>
      <trkpt lat="44.91753" lon="3.76125">
        <ele>1265.9</ele>
        <time>2020-08-17T08:07:03Z</time>
      </trkpt>
      <trkpt lat="44.91771" lon="3.76261">
        <ele>1271.6</ele>
        <time>2020-08-17T08:07:53Z</time>
      </trkpt>
      <trkpt lat="44.91781" lon="3.764">
        <ele>1276.1</ele>
        <time>2020-08-17T08:08:43Z</time>
      </trkpt>
      <trkpt lat="44.91753" lon="3.76534">
        <ele>1280.1</ele>
        <time>2020-08-17T08:09:33Z</time>
      </trkpt>
      <trkpt lat="44.91758" lon="3.76662">
        <ele>1284.1</ele>
        <time>2020-08-17T08:10:24Z</time>
      </trkpt>
      <trkpt lat="44.9176" lon="3.76797">
        <ele>1294.3</ele>
        <time>2020-08-17T08:12:03Z</time>
      </trkpt>
      <trkpt lat="44.91819" lon="3.76931">
        <ele>1308.5</ele>
        <time>2020-08-17T08:13:25Z</time>
      </trkpt>
      <trkpt lat="44.91887" lon="3.77068">
        <ele>1308.9</ele>
        <time>2020-08-17T08:13:40Z</time>
      </trkpt>
      <trkpt lat="44.91912" lon="3.77196">
        <ele>1307.4</ele>
        <time>2020-08-17T08:13:50Z</time>
      </trkpt>
      <trkpt lat="44.91956" lon="3.7731">
        <ele>1306.4</ele>
        <time>2020-08-17T08:14:00Z</time>
      </trkpt>
      <trkpt lat="44.91993" lon="3.77454">
        <ele>1305.2</ele>
        <time>2020-08-17T08:14:15Z</time>
      </trkpt>
      <trkpt lat="44.9191" lon="3.77362">
        <ele>1306.4</ele>
        <time>2020-08-17T08:15:59Z</time>
      </trkpt>
      <trkpt lat="44.91812" lon="3.77311">
        <ele>1305.1</ele>
        <time>2020-08-17T08:16:24Z</time>
      </trkpt>
      <trkpt lat="44.91736" lon="3.77378">
        <ele>1302.5</ele>
        <time>2020-08-17T08:16:49Z</time>
      </trkpt>
      <trkpt lat="44.91653" lon="3.77471">
        <ele>1301.7</ele>
        <time>2020-08-17T08:17:14Z</time>
      </trkpt>
      <trkpt lat="44.91567" lon="3.77559">
        <ele>1297.9</ele>
        <time>2020-08-17T08:17:39Z</time>
      </trkpt>
      <trkpt lat="44.91525" lon="3.77689">
        <ele>1294.2</ele>
        <time>2020-08-17T08:18:04Z</time>
      </trkpt>
      <trkpt lat="44.91542" lon="3.77817">
        <ele>1293.8</ele>
        <time>2020-08-17T08:18:34Z</time>
      </trkpt>
      <trkpt lat="44.91554" lon="3.77947">
        <ele>1295</ele>
        <time>2020-08-17T08:19:04Z</time>
      </trkpt>
      <trkpt lat="44.91543" lon="3.78091">
        <ele>1296.6</ele>
        <time>2020-08-17T08:19:39Z</time>
      </trkpt>
      <trkpt lat="44.91518" lon="3.78252">
        <ele>1297.1</ele>
        <time>2020-08-17T08:20:03Z</time>
      </trkpt>
      <trkpt lat="44.91495" lon="3.78379">
        <ele>1296.1</ele>
        <time>2020-08-17T08:20:18Z</time>
      </trkpt>
      <trkpt lat="44.9148" lon="3.78509">
        <ele>1295.9</ele>
        <time>2020-08-17T08:20:38Z</time>
      </trkpt>
      <trkpt lat="44.91467" lon="3.78643">
        <ele>1295.9</ele>
        <time>2020-08-17T08:21:03Z</time>
      </trkpt>
      <trkpt lat="44.91439" lon="3.78767">
        <ele>1295.1</ele>
        <time>2020-08-17T08:21:23Z</time>
      </trkpt>
      <trkpt lat="44.91408" lon="3.78906">
        <ele>1290.6</ele>
        <time>2020-08-17T08:21:43Z</time>
      </trkpt>
      <trkpt lat="44.91371" lon="3.79036">
        <ele>1290</ele>
        <time>2020-08-17T08:22:18Z</time>
      </trkpt>
      <trkpt lat="44.91341" lon="3.79171">
        <ele>1291.4</ele>
        <time>2020-08-17T08:22:58Z</time>
      </trkpt>
      <trkpt lat="44.91307" lon="3.7929">
        <ele>1292.8</ele>
        <time>2020-08-17T08:23:33Z</time>
      </trkpt>
      <trkpt lat="44.91285" lon="3.79424">
        <ele>1296.5</ele>
        <time>2020-08-17T08:24:26Z</time>
      </trkpt>
      <trkpt lat="44.91249" lon="3.7956">
        <ele>1297.5</ele>
        <time>2020-08-17T08:24:51Z</time>
      </trkpt>
      <trkpt lat="44.91169" lon="3.7966">
        <ele>1297.8</ele>
        <time>2020-08-17T08:25:16Z</time>
      </trkpt>
      <trkpt lat="44.91083" lon="3.79766">
        <ele>1296.9</ele>
        <time>2020-08-17T08:25:36Z</time>
      </trkpt>
      <trkpt lat="44.90979" lon="3.79814">
        <ele>1296.5</ele>
        <time>2020-08-17T08:25:51Z</time>
      </trkpt>
      <trkpt lat="44.90895" lon="3.79944">
        <ele>1291.7</ele>
        <time>2020-08-17T08:29:29Z</time>
      </trkpt>
      <trkpt lat="44.90834" lon="3.80043">
        <ele>1290.1</ele>
        <time>2020-08-17T08:29:39Z</time>
      </trkpt>
      <trkpt lat="44.90764" lon="3.80185">
        <ele>1285.9</ele>
        <time>2020-08-17T08:29:54Z</time>
      </trkpt>
      <trkpt lat="44.90687" lon="3.80302">
        <ele>1282.1</ele>
        <time>2020-08-17T08:30:09Z</time>
      </trkpt>
      <trkpt lat="44.90653" lon="3.80476">
        <ele>1276</ele>
        <time>2020-08-17T08:30:24Z</time>
      </trkpt>
      <trkpt lat="44.90649" lon="3.80606">
        <ele>1271.7</ele>
        <time>2020-08-17T08:30:34Z</time>
      </trkpt>
      <trkpt lat="44.90566" lon="3.80687">
        <ele>1263.3</ele>
        <time>2020-08-17T08:30:59Z</time>
      </trkpt>
      <trkpt lat="44.90483" lon="3.80733">
        <ele>1264.1</ele>
        <time>2020-08-17T08:32:44Z</time>
      </trkpt>
      <trkpt lat="44.90389" lon="3.80762">
        <ele>1267</ele>
        <time>2020-08-17T08:35:14Z</time>
      </trkpt>
      <trkpt lat="44.90282" lon="3.80785">
        <ele>1266.7</ele>
        <time>2020-08-17T08:35:39Z</time>
      </trkpt>
      <trkpt lat="44.90175" lon="3.80788">
        <ele>1266.7</ele>
        <time>2020-08-17T08:36:04Z</time>
      </trkpt>
      <trkpt lat="44.90089" lon="3.80739">
        <ele>1266.2</ele>
        <time>2020-08-17T08:36:24Z</time>
      </trkpt>
      <trkpt lat="44.89998" lon="3.80683">
        <ele>1265.2</ele>
        <time>2020-08-17T08:36:49Z</time>
      </trkpt>
      <trkpt lat="44.89904" lon="3.80648">
        <ele>1264.3</ele>
        <time>2020-08-17T08:37:09Z</time>
      </trkpt>
      <trkpt lat="44.89816" lon="3.80613">
        <ele>1263.7</ele>
        <time>2020-08-17T08:37:29Z</time>
      </trkpt>
      <trkpt lat="44.89716" lon="3.80575">
        <ele>1263.4</ele>
        <time>2020-08-17T08:37:49Z</time>
      </trkpt>
      <trkpt lat="44.89614" lon="3.80522">
        <ele>1263.3</ele>
        <time>2020-08-17T08:38:14Z</time>
      </trkpt>
      <trkpt lat="44.89662" lon="3.80652">
        <ele>1262.2</ele>
        <time>2020-08-17T08:38:44Z</time>
      </trkpt>
      <trkpt lat="44.89697" lon="3.8078">
        <ele>1261</ele>
        <time>2020-08-17T08:38:59Z</time>
      </trkpt>
      <trkpt lat="44.89707" lon="3.80953">
        <ele>1259.1</ele>
        <time>2020-08-17T08:39:14Z</time>
      </trkpt>
      <trkpt lat="44.89741" lon="3.81082">
        <ele>1257.1</ele>
        <time>2020-08-17T08:39:24Z</time>
      </trkpt>
      <trkpt lat="44.89753" lon="3.81239">
        <ele>1254.7</ele>
        <time>2020-08-17T08:39:34Z</time>
      </trkpt>
      <trkpt lat="44.89768" lon="3.81404">
        <ele>1251.6</ele>
        <time>2020-08-17T08:39:44Z</time>
      </trkpt>
      <trkpt lat="44.89802" lon="3.81568">
        <ele>1247.3</ele>
        <time>2020-08-17T08:39:54Z</time>
      </trkpt>
      <trkpt lat="44.89849" lon="3.81722">
        <ele>1242.9</ele>
        <time>2020-08-17T08:40:04Z</time>
      </trkpt>
      <trkpt lat="44.89944" lon="3.81828">
        <ele>1237.9</ele>
        <time>2020-08-17T08:40:14Z</time>
      </trkpt>
      <trkpt lat="44.90049" lon="3.81902">
        <ele>1231.6</ele>
        <time>2020-08-17T08:40:24Z</time>
      </trkpt>
      <trkpt lat="44.90109" lon="3.8201">
        <ele>1225.8</ele>
        <time>2020-08-17T08:40:34Z</time>
      </trkpt>
      <trkpt lat="44.90175" lon="3.82169">
        <ele>1219.9</ele>
        <time>2020-08-17T08:40:49Z</time>
      </trkpt>
      <trkpt lat="44.90232" lon="3.82329">
        <ele>1213.5</ele>
        <time>2020-08-17T08:41:04Z</time>
      </trkpt>
      <trkpt lat="44.90215" lon="3.82517">
        <ele>1205.8</ele>
        <time>2020-08-17T08:41:19Z</time>
      </trkpt>
      <trkpt lat="44.90207" lon="3.8266">
        <ele>1201.8</ele>
        <time>2020-08-17T08:41:29Z</time>
      </trkpt>
      <trkpt lat="44.90198" lon="3.82795">
        <ele>1198.8</ele>
        <time>2020-08-17T08:41:39Z</time>
      </trkpt>
      <trkpt lat="44.90203" lon="3.82925">
        <ele>1194.8</ele>
        <time>2020-08-17T08:41:49Z</time>
      </trkpt>
      <trkpt lat="44.90194" lon="3.83057">
        <ele>1191.3</ele>
        <time>2020-08-17T08:41:59Z</time>
      </trkpt>
      <trkpt lat="44.90175" lon="3.83233">
        <ele>1185.4</ele>
        <time>2020-08-17T08:42:14Z</time>
      </trkpt>
      <trkpt lat="44.90113" lon="3.83348">
        <ele>1180.6</ele>
        <time>2020-08-17T08:42:29Z</time>
      </trkpt>
      <trkpt lat="44.90094" lon="3.83489">
        <ele>1175.6</ele>
        <time>2020-08-17T08:42:44Z</time>
      </trkpt>
      <trkpt lat="44.90063" lon="3.83652">
        <ele>1172.4</ele>
        <time>2020-08-17T08:42:59Z</time>
      </trkpt>
      <trkpt lat="44.9" lon="3.838">
        <ele>1169.4</ele>
        <time>2020-08-17T08:43:14Z</time>
      </trkpt>
      <trkpt lat="44.89956" lon="3.83942">
        <ele>1165.8</ele>
        <time>2020-08-17T08:43:29Z</time>
      </trkpt>
      <trkpt lat="44.89873" lon="3.84029">
        <ele>1162.2</ele>
        <time>2020-08-17T08:43:44Z</time>
      </trkpt>
      <trkpt lat="44.89766" lon="3.84079">
        <ele>1157</ele>
        <time>2020-08-17T08:44:04Z</time>
      </trkpt>
      <trkpt lat="44.89675" lon="3.84125">
        <ele>1153.8</ele>
        <time>2020-08-17T08:44:24Z</time>
      </trkpt>
      <trkpt lat="44.89587" lon="3.84219">
        <ele>1150.9</ele>
        <time>2020-08-17T08:44:44Z</time>
      </trkpt>
      <trkpt lat="44.89583" lon="3.84383">
        <ele>1147.1</ele>
        <time>2020-08-17T08:44:59Z</time>
      </trkpt>
      <trkpt lat="44.89566" lon="3.84556">
        <ele>1144.7</ele>
        <time>2020-08-17T08:45:14Z</time>
      </trkpt>
      <trkpt lat="44.89542" lon="3.84677">
        <ele>1142.3</ele>
        <time>2020-08-17T08:45:46Z</time>
      </trkpt>
      <trkpt lat="44.89464" lon="3.84751">
        <ele>1131.3</ele>
        <time>2020-08-17T08:49:42Z</time>
      </trkpt>
      <trkpt lat="44.89376" lon="3.84805">
        <ele>1128</ele>
        <time>2020-08-17T09:12:16Z</time>
      </trkpt>
      <trkpt lat="44.89319" lon="3.84903">
        <ele>1127.7</ele>
        <time>2020-08-17T09:14:22Z</time>
      </trkpt>
      <trkpt lat="44.89232" lon="3.84862">
        <ele>1127.4</ele>
        <time>2020-08-17T09:15:22Z</time>
      </trkpt>
      <trkpt lat="44.8914" lon="3.84829">
        <ele>1127.3</ele>
        <time>2020-08-17T09:15:57Z</time>
      </trkpt>
      <trkpt lat="44.89034" lon="3.84805">
        <ele>1127.2</ele>
        <time>2020-08-17T09:16:17Z</time>
      </trkpt>
      <trkpt lat="44.89095" lon="3.84908">
        <ele>1127</ele>
        <time>2020-08-17T09:18:12Z</time>
      </trkpt>
      <trkpt lat="44.89069" lon="3.85063">
        <ele>1125.1</ele>
        <time>2020-08-17T09:18:27Z</time>
      </trkpt>
      <trkpt lat="44.8904" lon="3.8523">
        <ele>1124.3</ele>
        <time>2020-08-17T09:18:42Z</time>
      </trkpt>
      <trkpt lat="44.8904" lon="3.85384">
        <ele>1122.5</ele>
        <time>2020-08-17T09:18:57Z</time>
      </trkpt>
      <trkpt lat="44.89091" lon="3.85517">
        <ele>1119.5</ele>
        <time>2020-08-17T09:19:12Z</time>
      </trkpt>
      <trkpt lat="44.89181" lon="3.85648">
        <ele>1115.7</ele>
        <time>2020-08-17T09:19:27Z</time>
      </trkpt>
      <trkpt lat="44.89183" lon="3.85784">
        <ele>1112.9</ele>
        <time>2020-08-17T09:19:37Z</time>
      </trkpt>
      <trkpt lat="44.8915" lon="3.85922">
        <ele>1109.5</ele>
        <time>2020-08-17T09:19:47Z</time>
      </trkpt>
      <trkpt lat="44.89103" lon="3.86047">
        <ele>1104.9</ele>
        <time>2020-08-17T09:19:57Z</time>
      </trkpt>
      <trkpt lat="44.89071" lon="3.86177">
        <ele>1101.9</ele>
        <time>2020-08-17T09:20:07Z</time>
      </trkpt>
      <trkpt lat="44.89064" lon="3.86319">
        <ele>1096.8</ele>
        <time>2020-08-17T09:20:17Z</time>
      </trkpt>
      <trkpt lat="44.89067" lon="3.86459">
        <ele>1094.8</ele>
        <time>2020-08-17T09:20:27Z</time>
      </trkpt>
      <trkpt lat="44.89059" lon="3.86619">
        <ele>1093.8</ele>
        <time>2020-08-17T09:20:42Z</time>
      </trkpt>
      <trkpt lat="44.89008" lon="3.86736">
        <ele>1087</ele>
        <time>2020-08-17T09:21:02Z</time>
      </trkpt>
      <trkpt lat="44.88886" lon="3.86738">
        <ele>1081.1</ele>
        <time>2020-08-17T09:21:22Z</time>
      </trkpt>
      <trkpt lat="44.88853" lon="3.8686">
        <ele>1079</ele>
        <time>2020-08-17T09:21:42Z</time>
      </trkpt>
      <trkpt lat="44.88899" lon="3.86989">
        <ele>1077.7</ele>
        <time>2020-08-17T09:22:17Z</time>
      </trkpt>
      <trkpt lat="44.88896" lon="3.87129">
        <ele>1077.3</ele>
        <time>2020-08-17T09:22:47Z</time>
      </trkpt>
      <trkpt lat="44.88905" lon="3.87265">
        <ele>1076.9</ele>
        <time>2020-08-17T09:23:07Z</time>
      </trkpt>
      <trkpt lat="44.88927" lon="3.87409">
        <ele>1076.7</ele>
        <time>2020-08-17T09:23:27Z</time>
      </trkpt>
      <trkpt lat="44.88923" lon="3.87562">
        <ele>1077.8</ele>
        <time>2020-08-17T09:23:53Z</time>
      </trkpt>
      <trkpt lat="44.88919" lon="3.87691">
        <ele>1078.6</ele>
        <time>2020-08-17T09:24:18Z</time>
      </trkpt>
      <trkpt lat="44.88891" lon="3.87821">
        <ele>1079.2</ele>
        <time>2020-08-17T09:24:38Z</time>
      </trkpt>
      <trkpt lat="44.88853" lon="3.87955">
        <ele>1079.7</ele>
        <time>2020-08-17T09:24:58Z</time>
      </trkpt>
      <trkpt lat="44.88804" lon="3.8808">
        <ele>1080.1</ele>
        <time>2020-08-17T09:25:18Z</time>
      </trkpt>
      <trkpt lat="44.88752" lon="3.88219">
        <ele>1079.9</ele>
        <time>2020-08-17T09:25:38Z</time>
      </trkpt>
      <trkpt lat="44.88713" lon="3.88335">
        <ele>1078.4</ele>
        <time>2020-08-17T09:25:48Z</time>
      </trkpt>
      <trkpt lat="44.8868" lon="3.8846">
        <ele>1078.5</ele>
        <time>2020-08-17T09:25:58Z</time>
      </trkpt>
      <trkpt lat="44.88681" lon="3.88593">
        <ele>1076.7</ele>
        <time>2020-08-17T09:26:08Z</time>
      </trkpt>
      <trkpt lat="44.88699" lon="3.88719">
        <ele>1074.5</ele>
        <time>2020-08-17T09:26:18Z</time>
      </trkpt>
      <trkpt lat="44.88699" lon="3.88847">
        <ele>1073.2</ele>
        <time>2020-08-17T09:26:28Z</time>
      </trkpt>
      <trkpt lat="44.88656" lon="3.88976">
        <ele>1066.6</ele>
        <time>2020-08-17T09:27:07Z</time>
      </trkpt>
      <trkpt lat="44.88684" lon="3.89157">
        <ele>1060.2</ele>
        <time>2020-08-17T09:27:22Z</time>
      </trkpt>
      <trkpt lat="44.88778" lon="3.89228">
        <ele>1054.8</ele>
        <time>2020-08-17T09:27:32Z</time>
      </trkpt>
      <trkpt lat="44.88873" lon="3.89323">
        <ele>1048.8</ele>
        <time>2020-08-17T09:27:42Z</time>
      </trkpt>
      <trkpt lat="44.88921" lon="3.89471">
        <ele>1042.5</ele>
        <time>2020-08-17T09:27:52Z</time>
      </trkpt>
      <trkpt lat="44.88962" lon="3.89633">
        <ele>1036.1</ele>
        <time>2020-08-17T09:28:02Z</time>
      </trkpt>
      <trkpt lat="44.88996" lon="3.89797">
        <ele>1026</ele>
        <time>2020-08-17T09:28:12Z</time>
      </trkpt>
      <trkpt lat="44.8902" lon="3.89959">
        <ele>1012.4</ele>
        <time>2020-08-17T09:28:22Z</time>
      </trkpt>
      <trkpt lat="44.89111" lon="3.8999">
        <ele>999.9</ele>
        <time>2020-08-17T09:28:32Z</time>
      </trkpt>
      <trkpt lat="44.89208" lon="3.89981">
        <ele>992.5</ele>
        <time>2020-08-17T09:28:42Z</time>
      </trkpt>
      <trkpt lat="44.89258" lon="3.90123">
        <ele>983.6</ele>
        <time>2020-08-17T09:28:52Z</time>
      </trkpt>
      <trkpt lat="44.89226" lon="3.90299">
        <ele>970.7</ele>
        <time>2020-08-17T09:29:02Z</time>
      </trkpt>
      <trkpt lat="44.89186" lon="3.90443">
        <ele>961.7</ele>
        <time>2020-08-17T09:29:12Z</time>
      </trkpt>
      <trkpt lat="44.89172" lon="3.90618">
        <ele>953.5</ele>
        <time>2020-08-17T09:29:22Z</time>
      </trkpt>
      <trkpt lat="44.89179" lon="3.90806">
        <ele>942.7</ele>
        <time>2020-08-17T09:29:32Z</time>
      </trkpt>
      <trkpt lat="44.89178" lon="3.90998">
        <ele>927</ele>
        <time>2020-08-17T09:29:42Z</time>
      </trkpt>
      <trkpt lat="44.89157" lon="3.91181">
        <ele>916.1</ele>
        <time>2020-08-17T09:29:52Z</time>
      </trkpt>
      <trkpt lat="44.89087" lon="3.91345">
        <ele>906.9</ele>
        <time>2020-08-17T09:30:02Z</time>
      </trkpt>
      <trkpt lat="44.8904" lon="3.91529">
        <ele>893.1</ele>
        <time>2020-08-17T09:30:12Z</time>
      </trkpt>
      <trkpt lat="44.89011" lon="3.91723">
        <ele>882</ele>
        <time>2020-08-17T09:30:22Z</time>
      </trkpt>
      <trkpt lat="44.88996" lon="3.91874">
        <ele>874.6</ele>
        <time>2020-08-17T09:30:32Z</time>
      </trkpt>
      <trkpt lat="44.88969" lon="3.9202">
        <ele>866</ele>
        <time>2020-08-17T09:30:42Z</time>
      </trkpt>
      <trkpt lat="44.88944" lon="3.92173">
        <ele>860.5</ele>
        <time>2020-08-17T09:30:52Z</time>
      </trkpt>
      <trkpt lat="44.88934" lon="3.9232">
        <ele>853.5</ele>
        <time>2020-08-17T09:32:09Z</time>
      </trkpt>
      <trkpt lat="44.88922" lon="3.9246">
        <ele>848.7</ele>
        <time>2020-08-17T09:32:39Z</time>
      </trkpt>
      <trkpt lat="44.88862" lon="3.92563">
        <ele>833.2</ele>
        <time>2020-08-17T09:36:46Z</time>
      </trkpt>
      <trkpt lat="44.88809" lon="3.92671">
        <ele>832</ele>
        <time>2020-08-17T09:37:22Z</time>
      </trkpt>
      <trkpt lat="44.8883" lon="3.928">
        <ele>831.8</ele>
        <time>2020-08-17T09:38:42Z</time>
      </trkpt>
      <trkpt lat="44.88927" lon="3.92818">
        <ele>833.1</ele>
        <time>2020-08-17T09:39:36Z</time>
      </trkpt>
      <trkpt lat="44.88997" lon="3.92735">
        <ele>835</ele>
        <time>2020-08-17T09:40:37Z</time>
      </trkpt>
      <trkpt lat="44.89078" lon="3.92663">
        <ele>837.8</ele>
        <time>2020-08-17T09:41:40Z</time>
      </trkpt>
      <trkpt lat="44.8915" lon="3.92577">
        <ele>840</ele>
        <time>2020-08-17T09:42:41Z</time>
      </trkpt>
      <trkpt lat="44.89197" lon="3.9246">
        <ele>843.3</ele>
        <time>2020-08-17T09:43:42Z</time>
      </trkpt>
      <trkpt lat="44.89264" lon="3.92363">
        <ele>847.1</ele>
        <time>2020-08-17T09:44:44Z</time>
      </trkpt>
      <trkpt lat="44.8933" lon="3.92264">
        <ele>849.8</ele>
        <time>2020-08-17T09:45:43Z</time>
      </trkpt>
      <trkpt lat="44.89412" lon="3.92335">
        <ele>865.2</ele>
        <time>2020-08-17T09:46:58Z</time>
      </trkpt>
      <trkpt lat="44.89489" lon="3.92418">
        <ele>876.3</ele>
        <time>2020-08-17T09:47:52Z</time>
      </trkpt>
      <trkpt lat="44.89573" lon="3.92495">
        <ele>885</ele>
        <time>2020-08-17T09:49:10Z</time>
      </trkpt>
      <trkpt lat="44.89659" lon="3.92456">
        <ele>890.8</ele>
        <time>2020-08-17T09:50:16Z</time>
      </trkpt>
      <trkpt lat="44.89716" lon="3.9235">
        <ele>894.6</ele>
        <time>2020-08-17T09:51:17Z</time>
      </trkpt>
      <trkpt lat="44.89762" lon="3.92243">
        <ele>898.1</ele>
        <time>2020-08-17T09:52:12Z</time>
      </trkpt>
      <trkpt lat="44.8985" lon="3.92211">
        <ele>903.9</ele>
        <time>2020-08-17T09:53:12Z</time>
      </trkpt>
      <trkpt lat="44.89945" lon="3.92189">
        <ele>913.7</ele>
        <time>2020-08-17T09:54:16Z</time>
      </trkpt>
      <trkpt lat="44.90023" lon="3.92112">
        <ele>924.5</ele>
        <time>2020-08-17T09:55:14Z</time>
      </trkpt>
      <trkpt lat="44.90111" lon="3.92173">
        <ele>935.8</ele>
        <time>2020-08-17T09:56:29Z</time>
      </trkpt>
      <trkpt lat="44.90111" lon="3.92303">
        <ele>942.7</ele>
        <time>2020-08-17T09:57:29Z</time>
      </trkpt>
      <trkpt lat="44.90052" lon="3.92406">
        <ele>950.2</ele>
        <time>2020-08-17T09:58:38Z</time>
      </trkpt>
      <trkpt lat="44.90054" lon="3.92541">
        <ele>961.3</ele>
        <time>2020-08-17T09:59:41Z</time>
      </trkpt>
      <trkpt lat="44.90098" lon="3.92658">
        <ele>970.7</ele>
        <time>2020-08-17T10:00:47Z</time>
      </trkpt>
      <trkpt lat="44.90189" lon="3.92719">
        <ele>975.6</ele>
        <time>2020-08-17T10:01:37Z</time>
      </trkpt>
      <trkpt lat="44.90276" lon="3.9279">
        <ele>979.5</ele>
        <time>2020-08-17T10:02:38Z</time>
      </trkpt>
      <trkpt lat="44.90343" lon="3.92889">
        <ele>982.4</ele>
        <time>2020-08-17T10:03:36Z</time>
      </trkpt>
      <trkpt lat="44.90408" lon="3.92982">
        <ele>985.1</ele>
        <time>2020-08-17T10:04:31Z</time>
      </trkpt>
      <trkpt lat="44.90453" lon="3.93109">
        <ele>989</ele>
        <time>2020-08-17T10:05:29Z</time>
      </trkpt>
      <trkpt lat="44.90436" lon="3.93242">
        <ele>996.1</ele>
        <time>2020-08-17T10:06:26Z</time>
      </trkpt>
      <trkpt lat="44.90473" lon="3.93373">
        <ele>1005.3</ele>
        <time>2020-08-17T10:07:23Z</time>
      </trkpt>
      <trkpt lat="44.90563" lon="3.93397">
        <ele>1020</ele>
        <time>2020-08-17T10:11:37Z</time>
      </trkpt>
      <trkpt lat="44.90658" lon="3.93419">
        <ele>1024.8</ele>
        <time>2020-08-17T10:12:22Z</time>
      </trkpt>
      <trkpt lat="44.9074" lon="3.93508">
        <ele>1027.8</ele>
        <time>2020-08-17T10:12:58Z</time>
      </trkpt>
      <trkpt lat="44.90835" lon="3.93589">
        <ele>1045.1</ele>
        <time>2020-08-17T10:31:38Z</time>
      </trkpt>
      <trkpt lat="44.90929" lon="3.93672">
        <ele>1045.4</ele>
        <time>2020-08-17T10:31:53Z</time>
      </trkpt>
      <trkpt lat="44.90999" lon="3.93804">
        <ele>1045.1</ele>
        <time>2020-08-17T10:32:08Z</time>
      </trkpt>
      <trkpt lat="44.91048" lon="3.93953">
        <ele>1044</ele>
        <time>2020-08-17T10:32:28Z</time>
      </trkpt>
      <trkpt lat="44.91123" lon="3.94035">
        <ele>1041.5</ele>
        <time>2020-08-17T10:32:43Z</time>
      </trkpt>
      <trkpt lat="44.91229" lon="3.94176">
        <ele>1038.8</ele>
        <time>2020-08-17T10:32:58Z</time>
      </trkpt>
      <trkpt lat="44.91315" lon="3.94283">
        <ele>1036.5</ele>
        <time>2020-08-17T10:33:08Z</time>
      </trkpt>
      <trkpt lat="44.91373" lon="3.94422">
        <ele>1034.7</ele>
        <time>2020-08-17T10:33:18Z</time>
      </trkpt>
      <trkpt lat="44.91459" lon="3.94525">
        <ele>1032.2</ele>
        <time>2020-08-17T10:33:28Z</time>
      </trkpt>
      <trkpt lat="44.91532" lon="3.94632">
        <ele>1030.1</ele>
        <time>2020-08-17T10:33:38Z</time>
      </trkpt>
      <trkpt lat="44.9155" lon="3.94785">
        <ele>1028.3</ele>
        <time>2020-08-17T10:33:53Z</time>
      </trkpt>
      <trkpt lat="44.91557" lon="3.94921">
        <ele>1026.3</ele>
        <time>2020-08-17T10:34:13Z</time>
      </trkpt>
      <trkpt lat="44.91517" lon="3.95037">
        <ele>1025.7</ele>
        <time>2020-08-17T10:34:38Z</time>
      </trkpt>
      <trkpt lat="44.91454" lon="3.95129">
        <ele>1025.1</ele>
        <time>2020-08-17T10:35:08Z</time>
      </trkpt>
      <trkpt lat="44.9137" lon="3.95196">
        <ele>1024.3</ele>
        <time>2020-08-17T10:35:38Z</time>
      </trkpt>
      <trkpt lat="44.9142" lon="3.95308">
        <ele>1022.1</ele>
        <time>2020-08-17T10:36:08Z</time>
      </trkpt>
      <trkpt lat="44.91515" lon="3.95291">
        <ele>1021.7</ele>
        <time>2020-08-17T10:36:53Z</time>
      </trkpt>
      <trkpt lat="44.91544" lon="3.95419">
        <ele>1022.9</ele>
        <time>2020-08-17T10:37:44Z</time>
      </trkpt>
      <trkpt lat="44.91572" lon="3.95545">
        <ele>1025.3</ele>
        <time>2020-08-17T10:38:34Z</time>
      </trkpt>
      <trkpt lat="44.9166" lon="3.95609">
        <ele>1028.1</ele>
        <time>2020-08-17T10:39:25Z</time>
      </trkpt>
      <trkpt lat="44.91742" lon="3.95692">
        <ele>1031.4</ele>
        <time>2020-08-17T10:40:15Z</time>
      </trkpt>
      <trkpt lat="44.91797" lon="3.95806">
        <ele>1034.1</ele>
        <time>2020-08-17T10:41:00Z</time>
      </trkpt>
      <trkpt lat="44.91846" lon="3.95917">
        <ele>1036.7</ele>
        <time>2020-08-17T10:41:40Z</time>
      </trkpt>
      <trkpt lat="44.91877" lon="3.96043">
        <ele>1039</ele>
        <time>2020-08-17T10:42:15Z</time>
      </trkpt>
      <trkpt lat="44.91919" lon="3.96161">
        <ele>1040.8</ele>
        <time>2020-08-17T10:42:45Z</time>
      </trkpt>
      <trkpt lat="44.91936" lon="3.96288">
        <ele>1042.4</ele>
        <time>2020-08-17T10:43:15Z</time>
      </trkpt>
      <trkpt lat="44.91976" lon="3.96405">
        <ele>1044.2</ele>
        <time>2020-08-17T10:43:45Z</time>
      </trkpt>
      <trkpt lat="44.92032" lon="3.96516">
        <ele>1045.2</ele>
        <time>2020-08-17T10:44:15Z</time>
      </trkpt>
      <trkpt lat="44.92103" lon="3.96612">
        <ele>1046.8</ele>
        <time>2020-08-17T10:44:55Z</time>
      </trkpt>
      <trkpt lat="44.92187" lon="3.96703">
        <ele>1049.5</ele>
        <time>2020-08-17T10:45:20Z</time>
      </trkpt>
      <trkpt lat="44.9221" lon="3.96831">
        <ele>1050.1</ele>
        <time>2020-08-17T10:45:35Z</time>
      </trkpt>
      <trkpt lat="44.92256" lon="3.96966">
        <ele>1050.9</ele>
        <time>2020-08-17T10:45:50Z</time>
      </trkpt>
      <trkpt lat="44.92349" lon="3.96995">
        <ele>1051.9</ele>
        <time>2020-08-17T10:46:05Z</time>
      </trkpt>
      <trkpt lat="44.9247" lon="3.96955">
        <ele>1052.2</ele>
        <time>2020-08-17T10:46:25Z</time>
      </trkpt>
      <trkpt lat="44.92573" lon="3.96967">
        <ele>1052.9</ele>
        <time>2020-08-17T10:46:40Z</time>
      </trkpt>
      <trkpt lat="44.92604" lon="3.97101">
        <ele>1053</ele>
        <time>2020-08-17T10:46:55Z</time>
      </trkpt>
      <trkpt lat="44.92628" lon="3.97238">
        <ele>1054</ele>
        <time>2020-08-17T10:47:10Z</time>
      </trkpt>
      <trkpt lat="44.92613" lon="3.97379">
        <ele>1054.1</ele>
        <time>2020-08-17T10:47:25Z</time>
      </trkpt>
      <trkpt lat="44.92546" lon="3.97515">
        <ele>1052.6</ele>
        <time>2020-08-17T10:47:45Z</time>
      </trkpt>
      <trkpt lat="44.92519" lon="3.97639">
        <ele>1052.5</ele>
        <time>2020-08-17T10:48:00Z</time>
      </trkpt>
      <trkpt lat="44.92603" lon="3.97786">
        <ele>1051</ele>
        <time>2020-08-17T10:48:15Z</time>
      </trkpt>
      <trkpt lat="44.92675" lon="3.9789">
        <ele>1049.3</ele>
        <time>2020-08-17T10:48:25Z</time>
      </trkpt>
      <trkpt lat="44.92754" lon="3.97985">
        <ele>1047.9</ele>
        <time>2020-08-17T10:48:35Z</time>
      </trkpt>
      <trkpt lat="44.92722" lon="3.98157">
        <ele>1044.5</ele>
        <time>2020-08-17T10:48:50Z</time>
      </trkpt>
      <trkpt lat="44.92671" lon="3.98292">
        <ele>1039.1</ele>
        <time>2020-08-17T10:49:00Z</time>
      </trkpt>
      <trkpt lat="44.92731" lon="3.98396">
        <ele>1031.7</ele>
        <time>2020-08-17T10:49:20Z</time>
      </trkpt>
      <trkpt lat="44.92852" lon="3.98345">
        <ele>1028.3</ele>
        <time>2020-08-17T10:49:35Z</time>
      </trkpt>
      <trkpt lat="44.92897" lon="3.98504">
        <ele>1021.4</ele>
        <time>2020-08-17T10:49:50Z</time>
      </trkpt>
      <trkpt lat="44.92832" lon="3.98602">
        <ele>1014.5</ele>
        <time>2020-08-17T10:50:00Z</time>
      </trkpt>
      <trkpt lat="44.92786" lon="3.98712">
        <ele>1007.9</ele>
        <time>2020-08-17T10:50:10Z</time>
      </trkpt>
      <trkpt lat="44.92724" lon="3.98865">
        <ele>997</ele>
        <time>2020-08-17T10:50:25Z</time>
      </trkpt>
      <trkpt lat="44.92659" lon="3.98999">
        <ele>988.9</ele>
        <time>2020-08-17T10:50:40Z</time>
      </trkpt>
      <trkpt lat="44.92628" lon="3.99126">
        <ele>986.2</ele>
        <time>2020-08-17T10:50:55Z</time>
      </trkpt>
      <trkpt lat="44.92619" lon="3.99258">
        <ele>981.9</ele>
        <time>2020-08-17T10:51:10Z</time>
      </trkpt>
      <trkpt lat="44.92596" lon="3.99397">
        <ele>976.8</ele>
        <time>2020-08-17T10:51:25Z</time>
      </trkpt>
      <trkpt lat="44.92637" lon="3.99517">
        <ele>974.9</ele>
        <time>2020-08-17T10:51:39Z</time>
      </trkpt>
      <trkpt lat="44.92711" lon="3.99631">
        <ele>973.5</ele>
        <time>2020-08-17T10:51:54Z</time>
      </trkpt>
      <trkpt lat="44.92776" lon="3.99786">
        <ele>971</ele>
        <time>2020-08-17T10:52:14Z</time>
      </trkpt>
      <trkpt lat="44.92799" lon="3.99953">
        <ele>967.6</ele>
        <time>2020-08-17T10:52:29Z</time>
      </trkpt>
      <trkpt lat="44.92669" lon="3.9996">
        <ele>964.7</ele>
        <time>2020-08-17T10:52:44Z</time>
      </trkpt>
      <trkpt lat="44.92706" lon="4.00094">
        <ele>958.3</ele>
        <time>2020-08-17T10:53:04Z</time>
      </trkpt>
      <trkpt lat="44.92741" lon="4.00268">
        <ele>954.3</ele>
        <time>2020-08-17T10:53:19Z</time>
      </trkpt>
      <trkpt lat="44.9269" lon="4.00404">
        <ele>949.1</ele>
        <time>2020-08-17T10:53:34Z</time>
      </trkpt>
      <trkpt lat="44.9263" lon="4.00532">
        <ele>941.3</ele>
        <time>2020-08-17T10:53:49Z</time>
      </trkpt>
      <trkpt lat="44.92605" lon="4.00721">
        <ele>934.9</ele>
        <time>2020-08-17T10:54:04Z</time>
      </trkpt>
      <trkpt lat="44.92687" lon="4.0078">
        <ele>932.4</ele>
        <time>2020-08-17T10:54:24Z</time>
      </trkpt>
      <trkpt lat="44.92757" lon="4.00699">
        <ele>924.6</ele>
        <time>2020-08-17T10:57:58Z</time>
      </trkpt>
      <trkpt lat="44.92826" lon="4.00604">
        <ele>925.4</ele>
        <time>2020-08-17T10:58:59Z</time>
      </trkpt>
      <trkpt lat="44.92891" lon="4.00504">
        <ele>928.6</ele>
        <time>2020-08-17T11:00:02Z</time>
      </trkpt>
      <trkpt lat="44.92934" lon="4.00383">
        <ele>931</ele>
        <time>2020-08-17T11:01:00Z</time>
      </trkpt>
      <trkpt lat="44.9302" lon="4.00326">
        <ele>934.1</ele>
        <time>2020-08-17T11:02:07Z</time>
      </trkpt>
      <trkpt lat="44.93099" lon="4.00245">
        <ele>937.2</ele>
        <time>2020-08-17T11:03:14Z</time>
      </trkpt>
      <trkpt lat="44.93174" lon="4.00163">
        <ele>940.7</ele>
        <time>2020-08-17T11:04:16Z</time>
      </trkpt>
      <trkpt lat="44.93239" lon="4.00064">
        <ele>944.1</ele>
        <time>2020-08-17T11:05:17Z</time>
      </trkpt>
      <trkpt lat="44.93309" lon="3.99981">
        <ele>946.9</ele>
        <time>2020-08-17T11:06:05Z</time>
      </trkpt>
      <trkpt lat="44.93379" lon="3.99893">
        <ele>950.5</ele>
        <time>2020-08-17T11:06:40Z</time>
      </trkpt>
      <trkpt lat="44.93455" lon="3.99806">
        <ele>952.9</ele>
        <time>2020-08-17T11:07:15Z</time>
      </trkpt>
      <trkpt lat="44.93511" lon="3.9969">
        <ele>954.6</ele>
        <time>2020-08-17T11:07:55Z</time>
      </trkpt>
      <trkpt lat="44.93532" lon="3.99566">
        <ele>958.5</ele>
        <time>2020-08-17T11:08:25Z</time>
      </trkpt>
      <trkpt lat="44.93585" lon="3.99444">
        <ele>958.8</ele>
        <time>2020-08-17T11:08:40Z</time>
      </trkpt>
      <trkpt lat="44.93626" lon="3.99305">
        <ele>956.7</ele>
        <time>2020-08-17T11:08:55Z</time>
      </trkpt>
      <trkpt lat="44.93633" lon="3.99153">
        <ele>957.9</ele>
        <time>2020-08-17T11:09:15Z</time>
      </trkpt>
      <trkpt lat="44.93647" lon="3.99015">
        <ele>953.2</ele>
        <time>2020-08-17T11:09:30Z</time>
      </trkpt>
      <trkpt lat="44.93691" lon="3.98883">
        <ele>948.7</ele>
        <time>2020-08-17T11:09:50Z</time>
      </trkpt>
      <trkpt lat="44.93723" lon="3.98713">
        <ele>928.6</ele>
        <time>2020-08-17T11:10:05Z</time>
      </trkpt>
      <trkpt lat="44.93692" lon="3.98578">
        <ele>914.9</ele>
        <time>2020-08-17T11:10:15Z</time>
      </trkpt>
      <trkpt lat="44.9365" lon="3.98436">
        <ele>900.8</ele>
        <time>2020-08-17T11:10:35Z</time>
      </trkpt>
      <trkpt lat="44.93566" lon="3.98375">
        <ele>897.1</ele>
        <time>2020-08-17T11:11:34Z</time>
      </trkpt>
    </trkseg>
  </trk>
</gpx>